Time;durP1;ratioP1;P1;durP2;ratioP2;P2;SDS_P1;SDS_P2;PMS_P1;PMS_P2;Temp;Humidity;BMP_temperature;BMP_pressure;BME280_temperature;BME280_humidity;BME280_pressure;Samples;Min_cycle;Max_cycle;Signal;HPM_P1;HPM_P2
2022/06/28 00:00:18;;;;;;;12.63;9.88;;;14.90;99.90;;;;;;4822909;29;20405;-58
2022/06/28 00:02:44;;;;;;;11.82;10.35;;;14.90;99.90;;;;;;4822472;29;20042;-59
2022/06/28 00:05:10;;;;;;;14.30;9.75;;;14.90;99.90;;;;;;4823575;29;20057;-58
2022/06/28 00:07:36;;;;;;;11.02;9.32;;;14.90;99.90;;;;;;4795404;29;20058;-59
2022/06/28 00:10:03;;;;;;;12.00;9.75;;;14.80;99.90;;;;;;4825911;29;20050;-58
2022/06/28 00:12:29;;;;;;;12.93;10.20;;;14.80;99.90;;;;;;4809656;29;20580;-58
2022/06/28 00:17:40;;;;;;;13.93;10.57;;;14.80;99.90;;;;;;4826198;29;20054;-58
2022/06/28 00:20:06;;;;;;;14.02;10.27;;;14.70;99.90;;;;;;4809694;29;20058;-59
2022/06/28 00:22:32;;;;;;;11.00;9.65;;;14.80;99.90;;;;;;4826132;29;20145;-58
2022/06/28 00:24:57;;;;;;;11.40;10.10;;;14.70;99.90;;;;;;4825695;29;20126;-58
2022/06/28 00:27:23;;;;;;;11.85;9.65;;;14.70;99.90;;;;;;4826219;29;20079;-58
2022/06/28 00:29:49;;;;;;;14.57;10.48;;;14.70;99.90;;;;;;4825298;29;20522;-58
2022/06/28 00:32:14;;;;;;;12.02;9.57;;;14.60;99.90;;;;;;4809944;29;20062;-58
2022/06/28 00:34:40;;;;;;;11.43;9.60;;;14.60;99.90;;;;;;4809515;29;20050;-58
2022/06/28 00:37:06;;;;;;;10.98;9.80;;;14.60;99.90;;;;;;4824885;29;20424;-59
2022/06/28 00:39:31;;;;;;;12.25;10.00;;;14.60;99.90;;;;;;4779672;29;20057;-58
2022/06/28 00:41:57;;;;;;;16.17;9.65;;;14.50;99.90;;;;;;4825112;29;20054;-58
2022/06/28 00:44:23;;;;;;;13.60;9.93;;;14.50;99.90;;;;;;4825547;29;20054;-58
2022/06/28 00:46:49;;;;;;;14.13;10.15;;;14.50;99.90;;;;;;4825012;29;20046;-59
2022/06/28 00:49:15;;;;;;;15.25;10.18;;;14.50;99.90;;;;;;4825433;29;20046;-58
2022/06/28 00:51:41;;;;;;;13.52;10.45;;;14.40;99.90;;;;;;4809276;29;20056;-57
2022/06/28 00:54:07;;;;;;;11.40;9.93;;;14.40;99.90;;;;;;4824965;29;20046;-58
2022/06/28 00:56:33;;;;;;;16.08;9.70;;;14.40;99.90;;;;;;4808785;29;20461;-58
2022/06/28 00:59:00;;;;;;;13.23;10.32;;;14.40;99.90;;;;;;4824527;29;20133;-58
2022/06/28 01:01:26;;;;;;;12.40;9.98;;;14.40;99.90;;;;;;4825293;29;20054;-60
2022/06/28 01:03:53;;;;;;;11.60;9.57;;;14.30;99.90;;;;;;4808674;29;20735;-58
2022/06/28 01:06:19;;;;;;;14.20;10.18;;;14.30;99.90;;;;;;4809018;29;20093;-58
2022/06/28 01:08:46;;;;;;;12.40;10.43;;;14.30;99.90;;;;;;4809279;29;20093;-58
2022/06/28 01:11:19;;;;;;;13.80;10.25;;;14.30;99.90;;;;;;4808820;29;20539;-58
2022/06/28 01:13:50;;;;;;;13.17;9.97;;;14.20;99.90;;;;;;4825023;29;20054;-58
2022/06/28 01:16:18;;;;;;;12.40;10.10;;;14.20;99.90;;;;;;4808127;29;20420;-58
2022/06/28 01:18:44;;;;;;;11.68;9.88;;;14.20;99.90;;;;;;4808636;29;20046;-58
2022/06/28 01:21:13;;;;;;;10.52;9.05;;;14.20;99.90;;;;;;4824430;29;20085;-58
2022/06/28 01:23:43;;;;;;;12.68;10.13;;;14.20;99.90;;;;;;4824957;29;20053;-59
2022/06/28 01:26:14;;;;;;;13.63;9.75;;;14.10;99.90;;;;;;4824141;29;20508;-58
2022/06/28 01:28:41;;;;;;;12.95;9.20;;;14.10;99.90;;;;;;4824614;29;20115;-58
2022/06/28 01:31:07;;;;;;;12.95;9.43;;;14.10;99.90;;;;;;4824326;29;20087;-58
2022/06/28 01:33:37;;;;;;;11.45;8.35;;;14.10;99.90;;;;;;4824756;29;20055;-58
2022/06/28 01:36:04;;;;;;;11.27;9.25;;;14.10;99.90;;;;;;4824428;29;20053;-58
2022/06/28 01:38:31;;;;;;;12.07;8.52;;;14.10;99.90;;;;;;4824657;29;20054;-59
2022/06/28 01:40:57;;;;;;;11.20;8.35;;;14.10;99.90;;;;;;4824324;29;20137;-59
2022/06/28 01:43:23;;;;;;;13.45;9.23;;;14.10;99.90;;;;;;4824696;29;20050;-59
2022/06/28 01:45:51;;;;;;;10.88;9.20;;;14.00;99.90;;;;;;4824585;29;20042;-59
2022/06/28 01:48:20;;;;;;;11.05;8.27;;;14.00;99.90;;;;;;4824297;29;20046;-59
2022/06/28 01:50:50;;;;;;;13.95;8.98;;;14.00;99.90;;;;;;4824682;29;20046;-59
2022/06/28 01:53:16;;;;;;;12.02;8.80;;;14.00;99.90;;;;;;4824162;29;20054;-60
2022/06/28 01:55:42;;;;;;;10.63;7.93;;;14.00;99.90;;;;;;4807560;29;20183;-59
2022/06/28 01:58:08;;;;;;;11.07;8.20;;;14.00;99.90;;;;;;4823936;29;20059;-59
2022/06/28 02:00:35;;;;;;;10.38;7.95;;;14.00;99.90;;;;;;4824385;29;20054;-59
2022/06/28 02:03:01;;;;;;;11.98;7.75;;;14.00;99.90;;;;;;4823994;29;20058;-59
2022/06/28 02:05:27;;;;;;;13.65;8.63;;;14.00;99.90;;;;;;4808258;29;20054;-61
2022/06/28 02:07:54;;;;;;;11.60;8.57;;;13.90;99.90;;;;;;4824196;29;20046;-58
2022/06/28 02:10:21;;;;;;;10.27;7.93;;;13.90;99.90;;;;;;4824004;29;20046;-58
2022/06/28 02:12:48;;;;;;;12.18;8.15;;;13.90;99.90;;;;;;4824218;29;20050;-59
2022/06/28 02:15:14;;;;;;;13.63;7.85;;;13.90;99.90;;;;;;4807295;29;20056;-59
2022/06/28 02:17:41;;;;;;;9.95;7.90;;;13.90;99.90;;;;;;4808070;29;20052;-59
2022/06/28 02:20:07;;;;;;;11.55;7.90;;;13.90;99.90;;;;;;4823789;29;20392;-59
2022/06/28 02:22:33;;;;;;;10.20;6.93;;;13.90;99.90;;;;;;4824125;29;20054;-59
2022/06/28 02:24:59;;;;;;;11.93;7.50;;;13.80;99.90;;;;;;4823924;29;20042;-61
2022/06/28 02:27:24;;;;;;;10.68;7.28;;;13.80;99.90;;;;;;4823264;29;20485;-58
2022/06/28 02:29:50;;;;;;;8.77;6.93;;;13.80;99.90;;;;;;4823517;29;20537;-59
2022/06/28 02:32:16;;;;;;;10.10;7.45;;;13.80;99.90;;;;;;4823635;29;20067;-59
2022/06/28 02:40:22;;;;;;;10.68;7.50;;;13.80;99.90;;;;;;4823533;29;20062;-59
2022/06/28 02:42:50;;;;;;;13.20;7.93;;;13.80;99.90;;;;;;4823986;29;20104;-58
2022/06/28 02:45:17;;;;;;;10.07;7.28;;;13.80;99.90;;;;;;4792304;29;20503;-59
2022/06/28 02:47:43;;;;;;;10.07;7.63;;;13.70;99.90;;;;;;4823621;29;20089;-58
2022/06/28 02:50:09;;;;;;;11.20;7.88;;;13.70;99.90;;;;;;4806990;29;20054;-58
2022/06/28 02:52:35;;;;;;;9.68;6.88;;;13.70;99.90;;;;;;4806979;29;20108;-58
2022/06/28 02:55:01;;;;;;;9.98;7.35;;;13.70;99.90;;;;;;4823514;29;20058;-61
2022/06/28 02:57:27;;;;;;;12.38;7.30;;;13.70;99.90;;;;;;4806701;29;20054;-58
2022/06/28 02:59:52;;;;;;;10.27;7.28;;;13.70;99.90;;;;;;4823378;29;20073;-59
2022/06/28 03:02:18;;;;;;;8.98;7.43;;;13.70;99.90;;;;;;4806410;29;20164;-59
2022/06/28 03:04:43;;;;;;;8.95;6.90;;;13.70;99.90;;;;;;4822935;29;20050;-59
2022/06/28 03:07:09;;;;;;;13.07;7.70;;;13.70;99.90;;;;;;4823111;29;20133;-59
2022/06/28 03:09:35;;;;;;;11.73;7.38;;;13.70;99.90;;;;;;4806803;29;20062;-59
2022/06/28 03:12:01;;;;;;;12.20;7.55;;;13.70;99.90;;;;;;4823087;29;20192;-61
2022/06/28 03:14:26;;;;;;;12.35;7.65;;;13.70;99.90;;;;;;4822619;29;20489;-58
2022/06/28 03:16:52;;;;;;;8.98;7.25;;;13.70;99.90;;;;;;4806669;29;20068;-58
2022/06/28 03:19:18;;;;;;;9.30;7.47;;;13.70;99.90;;;;;;4791529;29;20055;-58
2022/06/28 03:21:43;;;;;;;12.18;8.05;;;13.70;99.90;;;;;;4806934;29;20123;-59
2022/06/28 03:24:09;;;;;;;13.35;7.80;;;13.70;99.90;;;;;;4822892;29;20050;-59
2022/06/28 03:26:35;;;;;;;11.63;7.97;;;13.70;99.90;;;;;;4823227;29;20179;-59
2022/06/28 03:29:00;;;;;;;9.70;6.95;;;13.70;99.90;;;;;;4806362;29;20137;-58
2022/06/28 03:31:26;;;;;;;10.93;7.78;;;13.60;99.90;;;;;;4822809;29;20070;-58
2022/06/28 03:33:52;;;;;;;12.15;8.23;;;13.60;99.90;;;;;;4806579;29;20058;-58
2022/06/28 03:36:17;;;;;;;12.93;8.40;;;13.60;99.90;;;;;;4822533;29;20427;-58
2022/06/28 03:38:43;;;;;;;12.75;9.07;;;13.60;99.90;;;;;;4806231;29;20363;-59
2022/06/28 03:41:09;;;;;;;11.68;8.45;;;13.60;99.90;;;;;;4806339;29;20080;-61
2022/06/28 03:43:34;;;;;;;10.73;8.57;;;13.60;99.90;;;;;;4822975;29;20464;-59
2022/06/28 03:46:00;;;;;;;9.77;8.77;;;13.60;99.90;;;;;;4806285;29;20042;-58
2022/06/28 03:48:26;;;;;;;12.75;9.05;;;13.60;99.90;;;;;;4822477;29;20046;-59
2022/06/28 03:50:51;;;;;;;8.73;7.60;;;13.60;99.90;;;;;;4822949;29;20050;-59
2022/06/28 03:53:17;;;;;;;11.20;8.68;;;13.60;99.90;;;;;;4822552;29;20050;-59
2022/06/28 03:55:43;;;;;;;9.55;8.45;;;13.60;99.90;;;;;;4806601;29;20050;-59
2022/06/28 03:58:08;;;;;;;13.45;8.27;;;13.60;99.90;;;;;;4806578;29;20386;-59
2022/06/28 04:00:34;;;;;;;11.13;8.02;;;13.70;99.90;;;;;;4806326;29;20118;-58
2022/06/28 04:03:00;;;;;;;14.93;8.45;;;13.70;99.90;;;;;;4791275;29;20482;-59
2022/06/28 04:05:28;;;;;;;13.70;8.18;;;13.80;99.90;;;;;;4822329;29;20086;-59
2022/06/28 04:07:53;;;;;;;13.65;7.65;;;13.80;99.90;;;;;;4821610;29;20098;-58
2022/06/28 04:10:19;;;;;;;11.52;7.32;;;13.80;99.90;;;;;;4806249;29;20458;-59
2022/06/28 04:12:45;;;;;;;15.30;8.68;;;13.80;99.90;;;;;;4822579;29;20103;-59
2022/06/28 04:15:11;;;;;;;9.43;6.85;;;13.80;99.90;;;;;;4822379;29;20145;-60
2022/06/28 04:17:37;;;;;;;12.80;8.15;;;13.80;99.90;;;;;;4806100;29;20062;-59
2022/06/28 04:20:03;;;;;;;9.52;7.25;;;13.80;99.90;;;;;;4822639;29;20046;-59
2022/06/28 04:22:29;;;;;;;13.27;7.97;;;13.80;99.90;;;;;;4822323;29;20054;-58
2022/06/28 04:24:54;;;;;;;16.95;7.50;;;13.80;99.90;;;;;;4822244;29;20386;-59
2022/06/28 04:27:20;;;;;;;10.90;6.93;;;13.80;99.90;;;;;;4822189;29;20046;-59
2022/06/28 04:29:46;;;;;;;11.10;7.30;;;13.80;99.90;;;;;;4822204;29;20508;-59
2022/06/28 04:32:12;;;;;;;8.85;6.40;;;13.80;99.90;;;;;;4822580;29;20420;-58
2022/06/28 04:34:37;;;;;;;11.30;6.57;;;13.80;99.90;;;;;;4822181;29;20491;-58
2022/06/28 04:37:03;;;;;;;10.88;6.15;;;13.80;99.90;;;;;;4805962;29;20464;-59
2022/06/28 04:39:29;;;;;;;11.95;7.00;;;13.90;99.90;;;;;;4822014;29;20058;-58
2022/06/28 04:41:55;;;;;;;9.25;6.20;;;13.90;99.90;;;;;;4822403;29;20054;-59
2022/06/28 04:44:20;;;;;;;10.88;6.65;;;14.10;99.90;;;;;;4822061;29;20499;-59
2022/06/28 04:46:46;;;;;;;10.45;6.70;;;14.20;99.90;;;;;;4822428;29;20058;-59
2022/06/28 04:49:12;;;;;;;8.70;5.65;;;14.30;99.90;;;;;;4806022;29;20054;-58
2022/06/28 04:51:38;;;;;;;11.13;5.32;;;14.60;99.90;;;;;;4807015;29;20145;-59
2022/06/28 04:54:04;;;;;;;10.65;5.35;;;14.90;99.90;;;;;;4809378;29;20107;-59
2022/06/28 04:56:29;;;;;;;8.77;4.95;;;15.60;99.90;;;;;;4824898;29;20397;-59
2022/06/28 04:58:55;;;;;;;8.18;4.82;;;16.50;99.90;;;;;;4824583;29;20056;-59
2022/06/28 05:01:21;;;;;;;7.20;4.18;;;17.60;99.90;;;;;;4824799;29;20054;-59
2022/06/28 05:03:46;;;;;;;8.20;4.00;;;18.50;99.90;;;;;;4825263;29;20465;-59
2022/06/28 05:06:12;;;;;;;10.68;3.83;;;;;;;;;;4825307;29;20054;-59
2022/06/28 05:08:38;;;;;;;7.57;3.60;;;19.50;99.90;;;;;;4824940;29;20133;-59
2022/06/28 05:11:04;;;;;;;8.25;3.30;;;21.10;99.90;;;;;;4824792;29;20093;-59
2022/06/28 05:13:30;;;;;;;6.22;3.30;;;21.70;99.90;;;;;;4824617;29;20529;-59
2022/06/28 05:15:55;;;;;;;8.73;3.85;;;22.30;99.90;;;;;;4825088;29;20062;-59
2022/06/28 05:18:21;;;;;;;6.28;3.08;;;22.80;99.90;;;;;;4824483;29;20093;-63
2022/06/28 05:20:47;;;;;;;6.97;2.95;;;23.30;99.90;;;;;;4825192;29;20050;-60
2022/06/28 05:23:12;;;;;;;8.40;3.28;;;23.80;99.90;;;;;;4825089;29;20051;-59
2022/06/28 05:25:38;;;;;;;6.22;2.97;;;24.20;99.90;;;;;;4808345;29;20050;-60
2022/06/28 05:28:04;;;;;;;5.65;2.47;;;24.60;99.90;;;;;;4824389;29;20042;-59
2022/06/28 05:30:30;;;;;;;5.88;2.60;;;25.00;99.90;;;;;;4824362;29;20101;-59
2022/06/28 05:32:55;;;;;;;5.45;2.80;;;25.30;99.90;;;;;;4808541;29;20138;-60
2022/06/28 05:35:21;;;;;;;8.65;2.95;;;25.50;99.90;;;;;;4824074;29;20051;-59
2022/06/28 05:37:47;;;;;;;6.30;2.80;;;25.90;99.80;;;;;;4824336;29;20085;-59
2022/06/28 05:40:12;;;;;;;5.65;2.65;;;26.30;99.90;;;;;;4824846;29;20507;-59
2022/06/28 05:42:38;;;;;;;5.75;2.67;;;26.50;97.80;;;;;;4808282;29;20050;-58
2022/06/28 05:45:04;;;;;;;8.95;3.30;;;26.70;99.40;;;;;;4793519;29;20112;-59
2022/06/28 05:47:31;;;;;;;6.97;2.97;;;26.80;99.60;;;;;;4823594;29;20153;-59
2022/06/28 05:49:57;;;;;;;7.75;3.00;;;26.80;97.20;;;;;;4824217;29;20554;-58
2022/06/28 05:52:22;;;;;;;7.28;2.63;;;26.80;96.20;;;;;;4824328;29;20046;-58
2022/06/28 05:54:48;;;;;;;7.03;2.72;;;27.00;95.90;;;;;;4823768;29;20498;-59
2022/06/28 05:57:14;;;;;;;6.45;3.15;;;27.20;97.60;;;;;;4824398;29;20133;-58
2022/06/28 05:59:39;;;;;;;5.43;2.80;;;27.40;95.80;;;;;;4823976;29;20097;-58
2022/06/28 06:02:06;;;;;;;7.85;2.55;;;27.40;95.40;;;;;;4823943;29;20061;-58
2022/06/28 06:04:31;;;;;;;6.90;2.95;;;27.50;96.80;;;;;;4823452;29;20115;-60
2022/06/28 06:06:57;;;;;;;8.05;3.00;;;27.70;95.10;;;;;;4824150;29;20047;-60
2022/06/28 06:09:23;;;;;;;5.82;2.63;;;27.80;95.00;;;;;;4824147;29;20180;-59
2022/06/28 06:11:49;;;;;;;8.48;2.88;;;28.00;95.50;;;;;;4823579;29;20061;-59
2022/06/28 06:14:16;;;;;;;6.70;2.58;;;28.20;94.50;;;;;;4807674;29;20086;-60
2022/06/28 06:16:43;;;;;;;6.45;2.63;;;28.40;94.90;;;;;;4823744;29;20131;-59
2022/06/28 06:19:09;;;;;;;5.65;2.28;;;28.70;95.40;;;;;;4824138;29;20090;-60
2022/06/28 06:21:35;;;;;;;4.88;2.45;;;28.70;94.30;;;;;;4823736;29;20073;-59
2022/06/28 06:24:01;;;;;;;5.63;2.50;;;28.80;93.30;;;;;;4807761;29;20046;-60
2022/06/28 06:26:26;;;;;;;6.95;2.85;;;28.80;93.10;;;;;;4823539;29;20042;-60
2022/06/28 06:28:52;;;;;;;8.05;2.65;;;29.00;93.40;;;;;;4807044;29;20414;-59
2022/06/28 06:31:18;;;;;;;6.70;3.08;;;29.20;92.20;;;;;;4777992;29;20050;-58
2022/06/28 06:33:43;;;;;;;7.95;2.60;;;29.30;92.80;;;;;;4823500;29;20049;-57
2022/06/28 06:36:09;;;;;;;6.47;2.40;;;29.30;92.90;;;;;;4807516;29;20049;-58
2022/06/28 06:38:35;;;;;;;6.32;2.50;;;29.60;92.30;;;;;;4823441;29;20047;-58
2022/06/28 06:41:01;;;;;;;9.13;2.72;;;29.30;92.40;;;;;;4807182;29;20061;-58
2022/06/28 06:43:27;;;;;;;8.13;2.63;;;29.60;91.90;;;;;;4823556;29;20187;-59
2022/06/28 06:45:54;;;;;;;6.82;2.45;;;29.80;92.20;;;;;;4807276;29;20329;-58
2022/06/28 06:48:24;;;;;;;8.27;2.70;;;29.90;92.20;;;;;;4807400;29;20088;-58
2022/06/28 06:50:49;;;;;;;7.60;2.13;;;30.10;91.10;;;;;;4823016;29;20094;-59
2022/06/28 06:53:16;;;;;;;6.60;2.33;;;30.40;92.00;;;;;;4807407;29;20090;-59
2022/06/28 06:55:41;;;;;;;6.53;2.10;;;30.70;90.90;;;;;;4806874;29;20058;-59
2022/06/28 06:58:08;;;;;;;6.35;2.45;;;30.90;90.60;;;;;;4823652;29;20054;-58
2022/06/28 07:00:34;;;;;;;7.22;3.00;;;31.00;90.20;;;;;;4823529;29;20065;-58
2022/06/28 07:03:02;;;;;;;7.70;2.33;;;31.10;90.20;;;;;;4823371;29;20175;-60
2022/06/28 07:05:29;;;;;;;6.22;2.10;;;31.10;90.80;;;;;;4823337;29;20057;-61
2022/06/28 07:07:54;;;;;;;5.70;2.08;;;31.40;90.00;;;;;;4823127;29;20058;-60
2022/06/28 07:10:20;;;;;;;8.15;2.10;;;31.50;90.20;;;;;;4807106;29;20058;-61
2022/06/28 07:12:46;;;;;;;6.47;2.25;;;31.50;89.40;;;;;;4822850;29;20461;-59
2022/06/28 07:15:11;;;;;;;5.68;2.30;;;31.30;88.80;;;;;;4822815;29;20054;-60
2022/06/28 07:17:37;;;;;;;8.55;2.60;;;31.20;88.40;;;;;;4807001;29;20090;-62
2022/06/28 07:20:04;;;;;;;7.70;2.35;;;31.60;88.70;;;;;;4823093;29;20130;-59
2022/06/28 07:22:29;;;;;;;7.00;2.25;;;31.60;87.60;;;;;;4806622;29;20050;-59
2022/06/28 07:24:56;;;;;;;4.55;2.08;;;31.90;87.60;;;;;;4822868;29;20081;-59
2022/06/28 07:27:22;;;;;;;8.20;2.47;;;31.80;88.30;;;;;;4823359;29;20432;-58
2022/06/28 07:29:48;;;;;;;7.43;2.30;;;30.90;88.30;;;;;;4822602;29;20072;-58
2022/06/28 07:32:15;;;;;;;10.75;2.13;;;30.50;87.90;;;;;;4822999;29;20133;-60
2022/06/28 07:34:40;;;;;;;7.90;2.55;;;30.40;89.20;;;;;;4822864;29;20057;-61
2022/06/28 07:37:06;;;;;;;8.00;2.50;;;29.90;88.70;;;;;;4806442;29;20050;-58
2022/06/28 07:39:32;;;;;;;5.85;2.28;;;29.70;88.80;;;;;;4823179;29;20474;-58
2022/06/28 07:41:58;;;;;;;5.93;1.98;;;29.90;89.10;;;;;;4806197;29;20050;-58
2022/06/28 07:44:24;;;;;;;3.72;1.73;;;30.10;87.50;;;;;;4822204;29;20046;-59
2022/06/28 07:46:49;;;;;;;7.22;2.20;;;30.40;87.50;;;;;;4791183;29;20053;-57
2022/06/28 07:49:15;;;;;;;8.50;2.03;;;30.90;88.10;;;;;;4806886;29;20370;-57
2022/06/28 07:54:26;;;;;;;7.57;1.67;;;31.40;85.20;;;;;;4793893;29;20058;-58
2022/06/28 07:56:52;;;;;;;8.40;2.15;;;31.60;85.40;;;;;;4822068;29;20086;-57
2022/06/28 07:59:18;;;;;;;5.25;1.60;;;31.80;84.70;;;;;;4821803;29;20050;-57
2022/06/28 08:01:43;;;;;;;6.45;1.70;;;32.00;84.70;;;;;;4806571;29;20047;-60
2022/06/28 08:04:11;;;;;;;8.35;1.77;;;31.90;82.60;;;;;;4806738;29;20107;-57
2022/06/28 08:06:38;;;;;;;5.93;1.90;;;31.40;83.20;;;;;;4806839;29;20058;-58
2022/06/28 08:09:05;;;;;;;6.30;1.70;;;30.80;84.00;;;;;;4791337;29;20145;-60
2022/06/28 08:11:32;;;;;;;6.35;1.75;;;30.40;83.40;;;;;;4822897;29;20536;-57
2022/06/28 08:13:59;;;;;;;4.38;1.35;;;29.90;84.30;;;;;;4821808;29;20055;-56
2022/06/28 08:16:24;;;;;;;4.68;1.63;;;29.00;83.30;;;;;;4822258;29;20050;-57
2022/06/28 08:18:50;;;;;;;3.33;1.35;;;28.60;84.90;;;;;;4822276;29;20477;-58
2022/06/28 08:21:16;;;;;;;6.80;1.83;;;29.10;85.50;;;;;;4791362;29;20050;-59
2022/06/28 08:23:41;;;;;;;5.38;1.58;;;29.80;84.10;;;;;;4822634;29;20073;-59
2022/06/28 08:26:07;;;;;;;5.13;1.63;;;30.40;83.40;;;;;;4806770;29;20038;-58
2022/06/28 08:28:33;;;;;;;4.63;1.50;;;31.20;84.20;;;;;;4809695;29;20054;-58
2022/06/28 08:30:59;;;;;;;6.47;2.25;;;31.40;83.30;;;;;;4809347;29;20066;-56
2022/06/28 08:33:24;;;;;;;4.47;1.52;;;31.60;82.40;;;;;;4825962;29;20408;-57
2022/06/28 08:35:50;;;;;;;6.82;1.73;;;32.10;81.20;;;;;;4825599;29;20054;-60
2022/06/28 08:38:16;;;;;;;5.93;1.42;;;32.00;79.40;;;;;;4825835;29;20055;-57
2022/06/28 08:40:43;;;;;;;4.20;1.60;;;31.90;81.70;;;;;;4825783;29;20443;-58
2022/06/28 08:43:09;;;;;;;6.13;1.30;;;32.00;80.70;;;;;;4825360;29;20093;-58
2022/06/28 08:45:36;;;;;;;3.63;1.40;;;32.40;80.70;;;;;;4825743;29;20085;-57
2022/06/28 08:48:13;;;;;;;4.90;1.73;;;32.70;77.20;;;;;;4825050;29;20107;-58
2022/06/28 08:50:41;;;;;;;5.60;1.52;;;33.00;77.20;;;;;;4825452;29;20116;-58
2022/06/28 08:53:08;;;;;;;5.00;1.60;;;33.30;77.30;;;;;;4809342;29;20401;-58
2022/06/28 08:55:36;;;;;;;5.75;1.83;;;33.40;77.50;;;;;;4825296;29;20049;-58
2022/06/28 08:58:05;;;;;;;5.88;1.60;;;33.40;75.20;;;;;;4808805;29;20062;-60
2022/06/28 09:00:31;;;;;;;5.82;1.50;;;33.70;76.70;;;;;;4825241;29;20097;-58
2022/06/28 09:02:57;;;;;;;5.13;1.55;;;33.80;76.20;;;;;;4793904;29;20073;-58
2022/06/28 09:05:25;;;;;;;6.07;1.70;;;33.40;73.70;;;;;;4825215;29;20405;-58
2022/06/28 09:07:53;;;;;;;4.50;1.50;;;32.50;74.50;;;;;;4825094;29;20046;-57
2022/06/28 09:10:20;;;;;;;6.28;1.48;;;31.70;76.70;;;;;;4825010;29;20123;-58
2022/06/28 09:12:55;;;;;;;7.50;1.73;;;31.30;77.00;;;;;;4825495;29;20382;-57
2022/06/28 09:15:22;;;;;;;6.32;1.88;;;31.30;76.50;;;;;;4825049;29;20500;-54
2022/06/28 09:17:53;;;;;;;8.32;2.03;;;31.50;76.60;;;;;;4809107;29;20058;-58
2022/06/28 09:20:19;;;;;;;6.13;1.75;;;31.70;76.90;;;;;;4825155;29;20046;-57
2022/06/28 09:22:45;;;;;;;4.78;1.65;;;31.40;75.70;;;;;;4824930;29;20069;-57
2022/06/28 09:25:31;;;;;;;5.38;1.42;;;31.30;74.20;;;;;;4824763;29;20051;-57
2022/06/28 09:28:01;;;;;;;4.55;1.60;;;30.90;75.20;;;;;;4824128;29;20070;-61
2022/06/28 09:30:29;;;;;;;7.32;1.80;;;30.10;76.40;;;;;;4808385;29;20110;-57
2022/06/28 09:32:55;;;;;;;4.47;1.67;;;29.60;76.90;;;;;;4824972;29;20055;-54
2022/06/28 09:35:24;;;;;;;4.25;1.58;;;29.30;77.90;;;;;;4824640;29;20516;-57
2022/06/28 09:37:50;;;;;;;4.50;1.60;;;29.30;78.00;;;;;;4808207;29;20051;-58
2022/06/28 09:40:29;;;;;;;5.80;1.60;;;29.40;77.50;;;;;;4823501;29;20689;-57
2022/06/28 09:43:12;;;;;;;3.78;1.48;;;29.10;78.40;;;;;;4824280;29;20058;-57
2022/06/28 09:45:43;;;;;;;4.22;1.63;;;29.10;77.80;;;;;;4824634;29;20050;-58
2022/06/28 09:48:15;;;;;;;8.40;1.70;;;29.40;78.30;;;;;;4824194;29;20050;-58
2022/06/28 09:50:41;;;;;;;6.65;1.65;;;29.40;78.00;;;;;;4808102;29;20115;-56
2022/06/28 09:53:08;;;;;;;5.82;1.80;;;29.10;77.40;;;;;;4823698;29;20493;-55
2022/06/28 09:55:34;;;;;;;7.68;1.80;;;28.80;78.40;;;;;;4824350;29;20393;-58
2022/06/28 09:58:01;;;;;;;5.50;1.60;;;28.40;79.00;;;;;;4824142;29;20061;-60
2022/06/28 10:00:29;;;;;;;5.72;1.83;;;28.20;79.30;;;;;;4808262;29;20061;-57
2022/06/28 10:02:56;;;;;;;8.30;2.10;;;28.10;80.00;;;;;;4808102;29;20093;-56
2022/06/28 10:05:22;;;;;;;7.15;1.83;;;28.10;80.20;;;;;;4823994;29;20648;-58
2022/06/28 10:07:48;;;;;;;6.55;2.10;;;28.00;81.10;;;;;;4824366;29;20053;-58
2022/06/28 10:10:14;;;;;;;7.13;1.92;;;28.00;79.70;;;;;;4807172;29;20050;-59
2022/06/28 10:15:31;;;;;;;6.50;1.67;;;27.70;78.30;;;;;;4823553;29;20050;-55
2022/06/28 10:18:16;;;;;;;8.65;1.63;;;27.60;79.30;;;;;;4808283;29;20413;-55
2022/06/28 10:20:46;;;;;;;5.93;1.80;;;27.50;78.90;;;;;;4824208;29;20481;-51
2022/06/28 10:23:40;;;;;;;6.22;2.10;;;27.40;79.10;;;;;;4823802;29;20065;-57
2022/06/28 10:26:15;;;;;;;6.38;1.80;;;27.60;78.90;;;;;;4823150;29;20065;-57
2022/06/28 10:28:45;;;;;;;8.88;2.25;;;27.60;78.10;;;;;;4807077;29;20454;-57
2022/06/28 10:31:23;;;;;;;5.03;1.92;;;27.70;78.00;;;;;;4823604;29;20489;-59
2022/06/28 10:33:53;;;;;;;6.40;1.85;;;27.80;78.80;;;;;;4824053;29;20090;-54
2022/06/28 10:36:21;;;;;;;8.45;1.67;;;27.70;79.10;;;;;;4823173;29;20042;-54
2022/06/28 10:39:08;;;;;;;7.15;1.70;;;27.60;81.10;;;;;;4823818;29;20133;-56
2022/06/28 10:42:04;;;;;;;7.75;1.98;;;27.40;79.90;;;;;;4822755;29;20489;-55
2022/06/28 10:44:30;;;;;;;4.40;1.90;;;27.40;81.90;;;;;;4803623;29;20088;-55
2022/06/28 10:47:10;;;;;;;7.38;1.80;;;27.40;80.20;;;;;;4807345;29;20485;-55
2022/06/28 10:49:57;;;;;;;6.50;1.95;;;27.50;79.10;;;;;;4822450;29;20050;-55
2022/06/28 10:52:35;;;;;;;4.30;1.50;;;27.50;78.80;;;;;;4822326;29;20557;-52
2022/06/28 10:55:04;;;;;;;7.70;1.73;;;27.30;79.30;;;;;;4823392;29;20058;-55
2022/06/28 10:57:38;;;;;;;5.22;1.58;;;27.20;80.40;;;;;;4822755;29;20050;-57
2022/06/28 11:00:19;;;;;;;5.15;1.55;;;27.10;80.50;;;;;;4823405;29;20358;-55
2022/06/28 11:02:51;;;;;;;6.30;1.98;;;27.20;78.30;;;;;;4823227;29;20143;-57
2022/06/28 11:05:23;;;;;;;6.95;2.17;;;27.40;78.50;;;;;;4822389;29;20050;-57
2022/06/28 11:07:58;;;;;;;8.43;2.00;;;27.40;79.40;;;;;;4822846;29;20053;-58
2022/06/28 11:10:24;;;;;;;8.23;1.85;;;27.30;79.10;;;;;;4822631;29;20057;-56
2022/06/28 11:12:50;;;;;;;9.45;2.00;;;27.50;79.60;;;;;;4823330;29;20383;-55
2022/06/28 11:15:36;;;;;;;5.20;1.80;;;27.50;78.60;;;;;;4821087;29;20050;-57
2022/06/28 11:18:02;;;;;;;5.65;1.50;;;27.50;78.20;;;;;;4819850;29;20402;-57
2022/06/28 11:20:30;;;;;;;8.15;2.33;;;27.30;79.20;;;;;;4822724;29;20103;-57
2022/06/28 11:22:56;;;;;;;6.18;2.20;;;27.20;80.10;;;;;;4823204;29;20061;-58
2022/06/28 11:27:19;;;;;;;6.10;1.77;;;26.90;79.00;;;;;;4822937;29;20050;-56
2022/06/28 11:28:14;;;;;;;7.13;1.98;;;26.80;79.60;;;;;;4822407;29;20054;-57
2022/06/28 11:30:42;;;;;;;7.47;2.00;;;26.80;80.10;;;;;;4822324;29;20198;-58
2022/06/28 11:33:08;;;;;;;7.05;1.95;;;26.80;80.70;;;;;;4821590;29;20055;-57
2022/06/28 11:35:34;;;;;;;8.48;1.98;;;26.80;81.00;;;;;;4789979;29;20614;-57
2022/06/28 11:38:02;;;;;;;7.45;1.70;;;26.90;80.60;;;;;;4823094;29;20086;-58
2022/06/28 11:40:39;;;;;;;6.68;1.98;;;27.00;80.80;;;;;;4806003;29;20402;-57
2022/06/28 11:43:08;;;;;;;6.28;1.88;;;27.00;80.70;;;;;;4823265;29;20057;-57
2022/06/28 11:45:46;;;;;;;3.80;1.67;;;26.80;80.50;;;;;;4806248;29;20057;-57
2022/06/28 11:48:16;;;;;;;5.88;1.75;;;26.70;80.70;;;;;;4821170;29;20054;-55
2022/06/28 11:50:50;;;;;;;6.70;2.10;;;26.60;81.00;;;;;;4822106;29;20046;-54
2022/06/28 11:53:16;;;;;;;;;;;26.40;81.00;;;;;;4821386;29;20504;-58
2022/06/28 11:55:50;;;;;;;8.27;1.90;;;26.30;81.20;;;;;;4821954;29;19928;-57
2022/06/28 11:58:26;;;;;;;6.45;2.17;;;25.90;81.90;;;;;;4820678;29;20046;-60
2022/06/28 12:01:05;;;;;;;7.70;1.80;;;25.90;83.10;;;;;;4808047;29;20054;-57
2022/06/28 12:03:32;;;;;;;6.18;2.10;;;26.00;83.40;;;;;;4826130;29;20131;-55
2022/06/28 12:06:00;;;;;;;11.68;2.17;;;26.10;83.10;;;;;;4826361;29;20114;-58
2022/06/28 12:08:44;;;;;;;4.15;1.65;;;26.20;80.40;;;;;;4825661;29;20450;-59
2022/06/28 12:11:29;;;;;;;7.95;2.05;;;26.30;80.50;;;;;;4825990;29;20137;-57
2022/06/28 12:14:05;;;;;;;7.53;1.95;;;26.30;79.20;;;;;;4826037;29;20059;-58
2022/06/28 12:16:44;;;;;;;5.60;1.80;;;26.30;80.00;;;;;;4825913;29;20133;-57
2022/06/28 12:19:19;;;;;;;6.00;1.95;;;26.30;79.70;;;;;;4826453;29;20070;-55
2022/06/28 12:22:01;;;;;;;7.03;1.70;;;26.20;78.90;;;;;;4826207;29;20086;-57
2022/06/28 12:24:41;;;;;;;5.13;2.05;;;26.20;79.70;;;;;;4809810;29;20485;-58
2022/06/28 12:27:07;;;;;;;5.38;1.67;;;26.20;79.00;;;;;;4826134;29;20057;-57
2022/06/28 12:29:33;;;;;;;5.45;1.63;;;26.20;79.30;;;;;;4825020;29;20070;-57
2022/06/28 12:31:59;;;;;;;3.58;1.40;;;26.30;79.20;;;;;;4809756;29;20050;-58
2022/06/28 12:34:25;;;;;;;6.00;1.60;;;26.40;78.90;;;;;;4809258;29;20133;-57
2022/06/28 12:36:51;;;;;;;5.35;1.33;;;26.40;78.10;;;;;;4825579;29;20050;-58
2022/06/28 12:39:17;;;;;;;5.35;1.60;;;26.30;78.00;;;;;;4825745;29;20058;-57
2022/06/28 12:41:43;;;;;;;6.18;1.67;;;26.20;77.90;;;;;;4809006;29;20050;-57
2022/06/28 12:44:09;;;;;;;5.40;1.77;;;26.10;78.50;;;;;;4825622;29;20046;-56
2022/06/28 12:46:35;;;;;;;5.28;1.77;;;26.10;79.30;;;;;;4825283;29;20097;-58
2022/06/28 12:49:00;;;;;;;8.68;1.80;;;26.20;78.20;;;;;;4825136;29;20519;-57
2022/06/28 12:51:27;;;;;;;3.65;1.38;;;26.40;75.00;;;;;;4808960;29;20050;-55
2022/06/28 12:53:53;;;;;;;4.20;1.55;;;26.50;76.50;;;;;;4809400;29;20054;-58
2022/06/28 12:56:19;;;;;;;5.32;1.60;;;26.60;76.50;;;;;;4824456;29;20566;-57
2022/06/28 12:58:46;;;;;;;5.93;1.40;;;26.60;76.70;;;;;;4825013;29;20109;-57